Time;durP1;ratioP1;P1;durP2;ratioP2;P2;SDS_P1;SDS_P2;PMS_P1;PMS_P2;Temp;Humidity;BMP_temperature;BMP_pressure;BME280_temperature;BME280_humidity;BME280_pressure;Samples;Min_cycle;Max_cycle;Signal;HPM_P1;HPM_P2
2024/02/27 00:02:12;;;;;;;6.72;3.47;;;;;;;;;;5073522;28;20671;-60
2024/02/27 00:04:41;;;;;;;8.18;4.20;;;;;;;;;;5066648;28;20040;-62
2024/02/27 00:07:07;;;;;;;10.13;5.38;;;;;;;;;;5074948;28;20024;-61
2024/02/27 00:09:33;;;;;;;9.57;4.68;;;;;;;;;;5049848;28;20409;-60
2024/02/27 00:11:59;;;;;;;8.90;4.93;;;;;;;;;;5072552;28;20693;-61
2024/02/27 00:14:25;;;;;;;11.18;5.45;;;;;;;;;;5068399;28;20064;-61
2024/02/27 00:16:51;;;;;;;8.55;4.38;;;;;;;;;;5068329;28;20017;-59
2024/02/27 00:19:17;;;;;;;9.45;5.13;;;;;;;;;;5063825;28;20047;-62
2024/02/27 00:21:43;;;;;;;7.65;4.38;;;;;;;;;;5065576;28;20446;-59
2024/02/27 00:24:09;;;;;;;10.20;5.13;;;;;;;;;;5064764;28;20096;-62
2024/02/27 00:26:35;;;;;;;10.63;5.03;;;;;;;;;;5064981;28;20485;-62
2024/02/27 00:29:01;;;;;;;8.93;5.45;;;;;;;;;;5071452;28;20028;-61
2024/02/27 00:31:27;;;;;;;10.02;5.70;;;;;;;;;;5066917;28;20033;-62
2024/02/27 00:33:53;;;;;;;10.38;5.57;;;;;;;;;;5068574;28;20028;-61
2024/02/27 00:36:19;;;;;;;11.52;5.70;;;;;;;;;;5070810;28;20036;-61
2024/02/27 00:38:45;;;;;;;11.80;6.13;;;;;;;;;;5069159;28;20024;-61
2024/02/27 00:41:10;;;;;;;12.18;5.80;;;;;;;;;;5074863;28;20056;-61
2024/02/27 00:43:36;;;;;;;14.05;6.03;;;;;;;;;;5070182;28;20111;-62
2024/02/27 00:46:02;;;;;;;11.90;6.30;;;;;;;;;;5067771;28;20070;-60
2024/02/27 00:48:28;;;;;;;11.60;6.18;;;;;;;;;;5065292;28;20040;-61
2024/02/27 00:50:54;;;;;;;14.13;6.90;;;;;;;;;;5078969;28;20028;-62
2024/02/27 00:53:21;;;;;;;13.57;7.00;;;;;;;;;;5063991;28;20028;-62
2024/02/27 00:55:47;;;;;;;14.07;6.75;;;;;;;;;;5072484;28;20068;-61
2024/02/27 00:58:13;;;;;;;14.70;6.57;;;;;;;;;;5065528;28;20491;-65
2024/02/27 01:00:39;;;;;;;14.75;6.97;;;;;;;;;;5067822;28;20041;-61
2024/02/27 01:03:05;;;;;;;12.88;6.30;;;;;;;;;;5069156;28;20075;-61
2024/02/27 01:05:31;;;;;;;21.63;8.82;;;;;;;;;;5067082;28;20043;-61
2024/02/27 01:07:57;;;;;;;15.82;8.35;;;;;;;;;;5070888;28;20036;-57
2024/02/27 01:10:23;;;;;;;22.02;7.90;;;;;;;;;;5067336;28;20035;-62
2024/02/27 01:12:49;;;;;;;17.42;8.10;;;;;;;;;;5051384;28;20048;-60
2024/02/27 01:15:15;;;;;;;14.60;7.47;;;;;;;;;;5067209;28;20097;-61
2024/02/27 01:17:41;;;;;;;14.43;8.07;;;;;;;;;;5069130;28;20032;-61
2024/02/27 01:20:07;;;;;;;16.08;7.47;;;;;;;;;;5066881;28;20040;-61
2024/02/27 01:22:33;;;;;;;23.23;9.18;;;;;;;;;;5059586;28;20139;-62
2024/02/27 01:24:59;;;;;;;18.70;8.63;;;;;;;;;;5061122;28;20025;-60
2024/02/27 01:27:26;;;;;;;17.85;9.10;;;;;;;;;;5074868;28;20448;-61
2024/02/27 01:29:53;;;;;;;17.63;8.98;;;;;;;;;;5061097;28;20095;-61
2024/02/27 01:32:19;;;;;;;18.05;8.30;;;;;;;;;;5071051;28;20024;-62
2024/02/27 01:34:45;;;;;;;17.10;8.00;;;;;;;;;;5068553;28;20025;-62
2024/02/27 01:37:11;;;;;;;17.73;9.73;;;;;;;;;;5067011;28;20393;-61
2024/02/27 01:39:37;;;;;;;14.38;8.05;;;;;;;;;;5064712;28;20037;-61
2024/02/27 01:42:03;;;;;;;19.63;10.10;;;;;;;;;;5075488;28;20028;-61
2024/02/27 01:44:29;;;;;;;15.75;8.02;;;;;;;;;;5066075;28;20013;-62
2024/02/27 01:46:56;;;;;;;20.58;8.85;;;;;;;;;;5068049;28;20040;-61
2024/02/27 01:49:22;;;;;;;20.83;9.13;;;;;;;;;;5064644;28;20376;-63
2024/02/27 01:51:49;;;;;;;18.13;9.23;;;;;;;;;;5065662;28;20080;-61
2024/02/27 01:54:16;;;;;;;18.95;9.13;;;;;;;;;;5065342;28;20032;-61
2024/02/27 01:56:44;;;;;;;13.52;8.93;;;;;;;;;;5070328;28;20486;-62
2024/02/27 01:59:11;;;;;;;21.77;9.50;;;;;;;;;;5071670;28;20506;-61
2024/02/27 02:01:38;;;;;;;21.40;9.10;;;;;;;;;;5068974;28;20487;-62
2024/02/27 02:04:07;;;;;;;19.30;10.07;;;;;;;;;;5068594;28;20056;-58
2024/02/27 02:06:33;;;;;;;21.23;9.27;;;;;;;;;;5061101;28;20143;-61
2024/02/27 02:08:59;;;;;;;24.70;11.45;;;;;;;;;;5069923;28;20032;-61
2024/02/27 02:11:25;;;;;;;22.38;10.77;;;;;;;;;;5067063;28;20436;-61
2024/02/27 02:13:51;;;;;;;19.52;10.23;;;;;;;;;;5048831;28;20025;-61
2024/02/27 02:16:17;;;;;;;23.42;10.65;;;;;;;;;;5070589;28;20025;-61
2024/02/27 02:18:43;;;;;;;20.77;10.45;;;;;;;;;;5070373;28;20032;-60
2024/02/27 02:21:09;;;;;;;24.58;10.07;;;;;;;;;;5062641;28;20036;-61
2024/02/27 02:23:35;;;;;;;26.58;11.05;;;;;;;;;;5067733;28;20040;-61
2024/02/27 02:26:02;;;;;;;22.85;10.13;;;;;;;;;;5062762;28;20505;-62
2024/02/27 02:28:28;;;;;;;24.55;9.80;;;;;;;;;;5071048;28;20082;-61
2024/02/27 02:30:54;;;;;;;24.17;10.95;;;;;;;;;;5065186;28;20455;-61
2024/02/27 02:33:20;;;;;;;20.55;9.77;;;;;;;;;;5068290;28;20505;-62
2024/02/27 02:35:46;;;;;;;26.75;10.70;;;;;;;;;;5069411;28;20020;-61
2024/02/27 02:38:12;;;;;;;22.55;10.80;;;;;;;;;;5070319;28;20028;-61
2024/02/27 02:40:38;;;;;;;24.60;12.00;;;;;;;;;;5067704;28;20032;-61
2024/02/27 02:43:04;;;;;;;24.65;10.70;;;;;;;;;;5069307;28;20041;-61
2024/02/27 02:45:30;;;;;;;21.55;9.73;;;;;;;;;;5065571;28;20032;-62
2024/02/27 02:47:57;;;;;;;20.27;9.90;;;;;;;;;;5069400;28;20024;-61
2024/02/27 02:50:23;;;;;;;23.88;10.75;;;;;;;;;;5064677;28;20566;-62
2024/02/27 02:52:49;;;;;;;22.42;11.27;;;;;;;;;;5070266;28;20028;-62
2024/02/27 02:55:15;;;;;;;25.50;10.55;;;;;;;;;;5068556;28;20028;-60
2024/02/27 02:57:41;;;;;;;18.92;9.20;;;;;;;;;;5066824;28;20430;-60
2024/02/27 03:00:11;;;;;;;23.40;10.63;;;;;;;;;;5069141;28;20036;-59
2024/02/27 03:02:37;;;;;;;23.50;9.93;;;;;;;;;;5053755;28;20151;-60
2024/02/27 03:05:05;;;;;;;23.45;11.73;;;;;;;;;;5071516;28;20077;-60
2024/02/27 03:07:30;;;;;;;25.77;11.35;;;;;;;;;;5063071;28;20039;-59
2024/02/27 03:09:56;;;;;;;23.95;11.73;;;;;;;;;;5067030;28;20033;-61
2024/02/27 03:12:25;;;;;;;26.65;10.88;;;;;;;;;;5064697;28;20122;-61
2024/02/27 03:14:52;;;;;;;25.70;12.18;;;;;;;;;;5063543;28;20027;-62
2024/02/27 03:17:18;;;;;;;24.50;11.02;;;;;;;;;;5070385;28;20021;-60
2024/02/27 03:19:44;;;;;;;32.53;13.63;;;;;;;;;;5064365;28;20032;-59
2024/02/27 03:22:11;;;;;;;30.17;12.88;;;;;;;;;;5060487;28;20032;-59
2024/02/27 03:24:37;;;;;;;25.48;11.85;;;;;;;;;;5059686;28;20043;-60
2024/02/27 03:27:03;;;;;;;31.25;13.25;;;;;;;;;;5061674;28;20040;-59
2024/02/27 03:29:30;;;;;;;35.20;12.90;;;;;;;;;;5061950;28;20033;-60
2024/02/27 03:31:56;;;;;;;32.75;13.07;;;;;;;;;;5070010;28;20039;-61
2024/02/27 03:34:24;;;;;;;28.98;12.90;;;;;;;;;;5063616;28;20028;-59
2024/02/27 03:36:50;;;;;;;33.83;14.18;;;;;;;;;;5060513;28;20490;-61
2024/02/27 03:39:16;;;;;;;29.90;11.65;;;;;;;;;;5063082;28;20047;-62
2024/02/27 03:41:42;;;;;;;29.45;13.55;;;;;;;;;;5060982;28;20036;-61
2024/02/27 03:44:08;;;;;;;29.75;12.02;;;;;;;;;;5068013;28;20033;-61
2024/02/27 03:46:34;;;;;;;32.30;13.15;;;;;;;;;;5066863;28;20036;-60
2024/02/27 03:49:00;;;;;;;35.53;14.70;;;;;;;;;;5068504;28;20081;-61
2024/02/27 03:51:26;;;;;;;30.73;12.02;;;;;;;;;;5066270;28;20425;-61
2024/02/27 03:53:52;;;;;;;30.33;13.48;;;;;;;;;;5064545;28;20524;-61
2024/02/27 03:56:18;;;;;;;34.78;13.57;;;;;;;;;;5064844;28;20052;-61
2024/02/27 03:58:44;;;;;;;35.08;14.57;;;;;;;;;;5065346;28;20016;-61
2024/02/27 04:01:09;;;;;;;35.97;13.38;;;;;;;;;;5061892;28;20487;-61
2024/02/27 04:03:36;;;;;;;28.00;13.02;;;;;;;;;;5062471;28;20041;-60
2024/02/27 04:06:02;;;;;;;29.02;12.35;;;;;;;;;;5062479;28;20491;-61
2024/02/27 04:08:28;;;;;;;34.30;14.05;;;;;;;;;;5062507;28;20107;-60
2024/02/27 04:10:54;;;;;;;30.17;12.13;;;;;;;;;;5063331;28;20546;-61
2024/02/27 04:13:20;;;;;;;30.23;14.20;;;;;;;;;;5063213;28;20048;-62
2024/02/27 04:15:46;;;;;;;33.53;12.82;;;;;;;;;;5064289;28;20503;-61
2024/02/27 04:18:12;;;;;;;29.85;13.98;;;;;;;;;;5067323;28;20059;-61
2024/02/27 04:20:38;;;;;;;30.30;12.98;;;;;;;;;;5065484;28;20466;-61
2024/02/27 04:23:04;;;;;;;32.08;12.48;;;;;;;;;;5065635;28;20038;-60
2024/02/27 04:25:31;;;;;;;34.20;14.07;;;;;;;;;;5057220;28;20552;-60
2024/02/27 04:27:57;;;;;;;32.33;13.98;;;;;;;;;;5063109;28;20109;-60
2024/02/27 04:30:23;;;;;;;25.17;11.32;;;;;;;;;;5061472;28;20805;-66
2024/02/27 04:32:49;;;;;;;29.02;12.10;;;;;;;;;;5063311;28;20032;-60
2024/02/27 04:35:15;;;;;;;36.25;14.20;;;;;;;;;;5065423;28;20017;-61
2024/02/27 04:37:41;;;;;;;32.42;12.77;;;;;;;;;;5063764;28;20460;-63
2024/02/27 04:40:09;;;;;;;27.55;11.57;;;;;;;;;;5057758;28;20079;-61
2024/02/27 04:42:34;;;;;;;33.45;12.13;;;;;;;;;;5063728;28;20379;-60
2024/02/27 04:45:00;;;;;;;36.45;14.25;;;;;;;;;;5067190;28;20039;-61
2024/02/27 04:47:26;;;;;;;29.98;11.80;;;;;;;;;;5065607;28;20097;-61
2024/02/27 04:49:52;;;;;;;28.17;12.63;;;;;;;;;;5060505;28;20033;-61
2024/02/27 04:52:18;;;;;;;27.83;13.35;;;;;;;;;;5062372;28;20032;-63
2024/02/27 04:54:44;;;;;;;27.95;12.27;;;;;;;;;;5065972;28;20498;-60
2024/02/27 04:57:10;;;;;;;27.52;12.75;;;;;;;;;;5073672;28;20502;-61
2024/02/27 04:59:36;;;;;;;31.80;12.13;;;;;;;;;;5067086;28;20033;-61
2024/02/27 05:02:03;;;;;;;31.15;12.80;;;;;;;;;;5069839;28;20031;-61
2024/02/27 05:04:29;;;;;;;26.92;12.32;;;;;;;;;;5067858;28;20024;-60
2024/02/27 05:06:56;;;;;;;32.20;12.38;;;;;;;;;;5071333;28;20048;-61
2024/02/27 05:09:22;;;;;;;25.77;11.60;;;;;;;;;;5070381;28;20070;-61
2024/02/27 05:11:48;;;;;;;28.50;12.27;;;;;;;;;;5073621;28;20036;-61
2024/02/27 05:14:14;;;;;;;25.08;13.02;;;;;;;;;;5066154;28;20108;-61
2024/02/27 05:16:41;;;;;;;31.92;13.93;;;;;;;;;;5072144;28;20398;-60
2024/02/27 05:19:09;;;;;;;31.92;12.93;;;;;;;;;;5068414;28;20062;-61
2024/02/27 05:21:35;;;;;;;28.02;13.18;;;;;;;;;;5068087;28;20032;-61
2024/02/27 05:24:01;;;;;;;28.60;13.57;;;;;;;;;;5067610;28;20059;-61
2024/02/27 05:26:27;;;;;;;27.23;13.05;;;;;;;;;;5053011;28;20042;-61
2024/02/27 05:28:53;;;;;;;30.15;12.98;;;;;;;;;;5073022;28;20525;-61
2024/02/27 05:31:29;;;;;;;36.17;14.73;;;;;;;;;;5068147;28;20020;-61
2024/02/27 05:33:55;;;;;;;33.28;12.30;;;;;;;;;;5070930;28;20033;-61
2024/02/27 05:36:22;;;;;;;32.33;13.57;;;;;;;;;;5067961;28;20106;-62
2024/02/27 05:38:50;;;;;;;29.85;13.45;;;;;;;;;;5070205;28;21979;-61
2024/02/27 05:41:16;;;;;;;28.17;12.68;;;;;;;;;;5068160;28;20024;-61
2024/02/27 05:43:42;;;;;;;30.98;13.27;;;;;;;;;;5066547;28;20485;-61
2024/02/27 05:46:09;;;;;;;31.05;13.70;;;;;;;;;;5065636;28;20028;-61
2024/02/27 05:48:35;;;;;;;29.73;13.60;;;;;;;;;;5069218;28;20067;-61
2024/02/27 05:51:01;;;;;;;32.00;12.48;;;;;;;;;;5067168;28;20052;-61
2024/02/27 05:53:29;;;;;;;30.90;13.07;;;;;;;;;;5069219;28;20462;-61
2024/02/27 05:55:55;;;;;;;31.30;14.05;;;;;;;;;;5065752;28;20033;-59
2024/02/27 05:58:23;;;;;;;31.98;13.40;;;;;;;;;;5070090;28;20071;-60
2024/02/27 06:00:50;;;;;;;34.85;14.27;;;;;;;;;;5071115;28;20071;-60
2024/02/27 06:03:16;;;;;;;32.95;13.23;;;;;;;;;;5067966;28;20116;-60
2024/02/27 06:05:41;;;;;;;32.75;13.88;;;;;;;;;;5067202;28;20036;-61
2024/02/27 06:08:07;;;;;;;35.30;13.57;;;;;;;;;;5059636;28;20028;-61
2024/02/27 06:10:33;;;;;;;34.70;14.05;;;;;;;;;;5062660;28;21833;-61
2024/02/27 06:13:00;;;;;;;40.63;16.10;;;;;;;;;;5066850;28;20938;-59
2024/02/27 06:15:26;;;;;;;34.30;13.15;;;;;;;;;;5066796;28;20038;-61
2024/02/27 06:17:52;;;;;;;32.28;13.93;;;;;;;;;;5071074;28;20021;-61
2024/02/27 06:23:02;;;;;;;32.78;14.55;;;;;;;;;;5063858;28;20043;-61
2024/02/27 06:25:28;;;;;;;31.58;13.07;;;;;;;;;;5063846;28;20059;-60
2024/02/27 06:27:54;;;;;;;34.03;15.93;;;;;;;;;;5064377;28;20091;-61
2024/02/27 06:30:20;;;;;;;35.33;13.10;;;;;;;;;;5064660;28;20032;-61
2024/02/27 06:32:46;;;;;;;36.60;13.93;;;;;;;;;;5066194;28;20024;-61
2024/02/27 06:35:12;;;;;;;33.05;13.93;;;;;;;;;;5067612;28;20028;-61
2024/02/27 06:37:38;;;;;;;35.78;13.70;;;;;;;;;;5070909;28;20121;-60
2024/02/27 06:40:04;;;;;;;34.22;14.23;;;;;;;;;;5065294;28;20033;-60
2024/02/27 06:42:36;;;;;;;33.22;15.82;;;;;;;;;;5064321;28;20028;-61
2024/02/27 06:45:02;;;;;;;34.58;14.77;;;;;;;;;;5066938;28;20070;-60
2024/02/27 06:47:28;;;;;;;38.60;16.42;;;;;;;;;;5075956;28;20176;-62
2024/02/27 06:49:56;;;;;;;35.00;14.13;;;;;;;;;;5066968;28;20039;-61
2024/02/27 06:52:22;;;;;;;31.48;14.00;;;;;;;;;;5065320;28;20059;-61
2024/02/27 06:54:48;;;;;;;29.40;13.20;;;;;;;;;;5065619;28;20069;-61
2024/02/27 06:57:14;;;;;;;36.50;15.02;;;;;;;;;;5064102;28;20024;-62
2024/02/27 06:59:40;;;;;;;35.47;13.30;;;;;;;;;;5066217;28;20037;-61
2024/02/27 07:02:06;;;;;;;34.60;13.90;;;;;;;;;;5067745;28;20032;-61
2024/02/27 07:04:32;;;;;;;36.55;15.32;;;;;;;;;;5066712;28;20025;-61
2024/02/27 07:06:59;;;;;;;28.67;12.35;;;;;;;;;;5063251;28;20071;-61
2024/02/27 07:09:25;;;;;;;36.20;13.88;;;;;;;;;;5049257;28;20374;-60
2024/02/27 07:11:51;;;;;;;29.02;12.75;;;;;;;;;;5065342;28;20032;-60
2024/02/27 07:14:17;;;;;;;35.08;14.82;;;;;;;;;;5065947;28;20412;-61
2024/02/27 07:16:44;;;;;;;33.40;13.60;;;;;;;;;;5070163;28;20036;-62
2024/02/27 07:19:10;;;;;;;32.25;13.73;;;;;;;;;;5066503;28;20099;-59
2024/02/27 07:21:36;;;;;;;35.42;14.02;;;;;;;;;;5067082;28;20171;-61
2024/02/27 07:24:02;;;;;;;32.13;13.75;;;;;;;;;;5062159;28;20169;-62
2024/02/27 07:26:28;;;;;;;34.05;14.52;;;;;;;;;;5060751;28;20032;-63
2024/02/27 07:28:53;;;;;;;27.80;12.02;;;;;;;;;;5064639;28;20044;-62
2024/02/27 07:31:20;;;;;;;33.03;13.88;;;;;;;;;;5063303;28;20024;-61
2024/02/27 07:33:46;;;;;;;32.47;14.57;;;;;;;;;;5065724;28;20012;-59
2024/02/27 07:36:13;;;;;;;34.85;13.35;;;;;;;;;;5065131;28;20054;-60
2024/02/27 07:38:39;;;;;;;35.38;13.65;;;;;;;;;;5065179;28;20106;-60
2024/02/27 07:41:05;;;;;;;34.28;15.02;;;;;;;;;;5062673;28;20497;-60
2024/02/27 07:43:31;;;;;;;35.38;15.27;;;;;;;;;;5064925;28;20039;-60
2024/02/27 07:45:57;;;;;;;37.33;15.13;;;;;;;;;;5064007;28;20931;-60
2024/02/27 07:48:23;;;;;;;33.13;13.65;;;;;;;;;;5063889;28;20140;-60
2024/02/27 07:50:52;;;;;;;35.10;14.57;;;;;;;;;;5064718;28;20503;-60
2024/02/27 07:53:18;;;;;;;34.42;14.50;;;;;;;;;;5063661;28;20555;-60
2024/02/27 07:55:44;;;;;;;37.50;15.30;;;;;;;;;;5062256;28;20031;-58
2024/02/27 07:58:10;;;;;;;41.45;15.30;;;;;;;;;;5065783;28;20025;-58
2024/02/27 08:00:36;;;;;;;35.72;15.48;;;;;;;;;;5061983;28;20387;-58
2024/02/27 08:03:03;;;;;;;31.90;14.32;;;;;;;;;;5068388;28;20038;-60
2024/02/27 08:05:29;;;;;;;33.95;14.77;;;;;;;;;;5061079;28;20036;-61
2024/02/27 08:07:55;;;;;;;37.03;14.32;;;;;;;;;;5044856;28;20029;-61
2024/02/27 08:10:21;;;;;;;36.75;15.27;;;;;;;;;;5064683;28;20024;-57
2024/02/27 08:12:50;;;;;;;35.72;15.95;;;;;;;;;;5063609;28;20381;-58
2024/02/27 08:15:16;;;;;;;39.50;15.48;;;;;;;;;;5062891;28;20059;-60
2024/02/27 08:17:43;;;;;;;37.78;14.13;;;;;;;;;;5060308;28;20467;-59
2024/02/27 08:20:10;;;;;;;28.88;12.55;;;;;;;;;;5063316;28;20044;-58
2024/02/27 08:22:36;;;;;;;44.45;16.08;;;;;;;;;;5063153;28;20029;-61
2024/02/27 08:25:03;;;;;;;33.55;15.70;;;;;;;;;;5065659;28;20035;-61
2024/02/27 08:27:29;;;;;;;44.42;16.55;;;;;;;;;;5060790;28;20028;-59
2024/02/27 08:29:55;;;;;;;41.22;15.45;;;;;;;;;;5064455;28;20035;-59
2024/02/27 08:32:22;;;;;;;41.50;16.02;;;;;;;;;;5063984;28;20082;-61
2024/02/27 08:34:48;;;;;;;38.88;14.48;;;;;;;;;;5064304;28;20027;-62
2024/02/27 08:37:14;;;;;;;39.75;15.82;;;;;;;;;;5064766;28;20020;-64
2024/02/27 08:39:40;;;;;;;35.75;14.10;;;;;;;;;;5060884;28;20075;-62
2024/02/27 08:42:06;;;;;;;33.67;15.52;;;;;;;;;;5064321;28;20452;-63
2024/02/27 08:44:32;;;;;;;34.88;13.63;;;;;;;;;;5058422;28;20032;-63
2024/02/27 08:47:01;;;;;;;36.60;14.70;;;;;;;;;;5063163;28;20029;-64
2024/02/27 08:49:27;;;;;;;41.45;16.30;;;;;;;;;;5068799;28;20418;-63
2024/02/27 08:51:53;;;;;;;38.97;16.02;;;;;;;;;;5061085;28;20032;-62
2024/02/27 08:54:19;;;;;;;44.25;15.77;;;;;;;;;;5061927;28;20029;-63
2024/02/27 08:56:45;;;;;;;35.88;14.38;;;;;;;;;;5061127;28;20020;-65
2024/02/27 08:59:11;;;;;;;39.65;14.52;;;;;;;;;;5068556;28;20040;-62
2024/02/27 09:01:37;;;;;;;29.75;13.55;;;;;;;;;;5063705;28;20021;-64
2024/02/27 09:04:03;;;;;;;36.17;15.52;;;;;;;;;;5058026;28;20702;-64
2024/02/27 09:06:29;;;;;;;32.30;14.27;;;;;;;;;;5064597;28;20547;-64
2024/02/27 09:08:55;;;;;;;34.08;14.35;;;;;;;;;;5064624;28;20028;-65
2024/02/27 09:11:21;;;;;;;40.15;16.50;;;;;;;;;;5060613;28;20390;-64
2024/02/27 09:13:47;;;;;;;42.35;14.70;;;;;;;;;;5068311;28;20024;-64
2024/02/27 09:16:13;;;;;;;33.28;14.48;;;;;;;;;;5066313;28;20028;-65
2024/02/27 09:18:40;;;;;;;37.95;15.43;;;;;;;;;;5065844;28;20575;-65
2024/02/27 09:21:06;;;;;;;35.13;14.70;;;;;;;;;;5066507;28;20054;-64
2024/02/27 09:23:32;;;;;;;36.53;14.20;;;;;;;;;;5063076;28;20781;-65
2024/02/27 09:25:58;;;;;;;32.65;13.68;;;;;;;;;;5062921;28;20036;-65
2024/02/27 09:28:24;;;;;;;36.85;15.38;;;;;;;;;;5067178;28;20509;-65
2024/02/27 09:30:50;;;;;;;33.58;14.45;;;;;;;;;;5064151;28;20020;-64
2024/02/27 09:33:16;;;;;;;40.17;16.00;;;;;;;;;;5066274;28;20396;-65
2024/02/27 09:35:42;;;;;;;37.53;14.82;;;;;;;;;;5063455;28;20131;-65
2024/02/27 09:38:08;;;;;;;33.72;14.55;;;;;;;;;;5060573;28;20017;-65
2024/02/27 09:40:35;;;;;;;32.05;13.25;;;;;;;;;;5066823;28;20120;-63
2024/02/27 09:43:01;;;;;;;38.33;15.13;;;;;;;;;;5064246;28;20497;-64
2024/02/27 09:45:30;;;;;;;34.53;13.77;;;;;;;;;;5067823;28;20032;-63
2024/02/27 09:47:56;;;;;;;37.05;15.38;;;;;;;;;;5070105;28;20020;-63
2024/02/27 09:50:22;;;;;;;30.50;13.52;;;;;;;;;;5070135;28;20043;-65
2024/02/27 09:52:52;;;;;;;35.00;14.38;;;;;;;;;;5066302;28;20547;-64
2024/02/27 09:55:21;;;;;;;30.70;12.45;;;;;;;;;;5065298;28;20028;-66
2024/02/27 09:57:51;;;;;;;32.47;13.55;;;;;;;;;;5071785;28;20352;-65
2024/02/27 10:00:17;;;;;;;42.08;15.63;;;;;;;;;;5070764;28;20028;-63
2024/02/27 10:02:46;;;;;;;33.03;12.88;;;;;;;;;;5065229;28;20039;-64
2024/02/27 10:05:14;;;;;;;31.92;15.02;;;;;;;;;;5066544;28;20039;-64
2024/02/27 10:07:40;;;;;;;33.58;13.27;;;;;;;;;;5068793;28;20035;-65
2024/02/27 10:10:07;;;;;;;33.40;12.98;;;;;;;;;;5068932;28;20028;-63
2024/02/27 10:12:33;;;;;;;32.45;13.35;;;;;;;;;;5066924;28;20078;-63
2024/02/27 10:14:59;;;;;;;31.10;13.05;;;;;;;;;;5067858;28;20032;-64
2024/02/27 10:17:25;;;;;;;29.85;13.18;;;;;;;;;;5066748;28;20124;-63
2024/02/27 10:19:51;;;;;;;34.17;13.55;;;;;;;;;;5065250;28;20042;-66
2024/02/27 10:22:19;;;;;;;30.55;12.68;;;;;;;;;;5061339;28;20115;-64
2024/02/27 10:24:45;;;;;;;30.08;12.88;;;;;;;;;;5066438;28;20039;-64
2024/02/27 10:27:11;;;;;;;34.60;13.80;;;;;;;;;;5065355;28;20037;-63
2024/02/27 10:29:39;;;;;;;30.80;11.85;;;;;;;;;;5070996;28;20082;-64
2024/02/27 10:32:06;;;;;;;28.85;11.80;;;;;;;;;;5065714;28;20104;-64
2024/02/27 10:34:33;;;;;;;29.08;12.60;;;;;;;;;;5065782;28;20033;-64
2024/02/27 10:37:00;;;;;;;30.17;12.98;;;;;;;;;;5066494;28;20028;-63
2024/02/27 10:39:26;;;;;;;33.08;12.02;;;;;;;;;;5062610;28;20047;-63
2024/02/27 10:41:52;;;;;;;26.90;11.88;;;;;;;;;;5065626;28;20024;-64
2024/02/27 10:44:18;;;;;;;31.90;12.95;;;;;;;;;;5067518;28;20035;-65
2024/02/27 10:46:44;;;;;;;32.78;14.55;;;;;;;;;;5066251;28;20033;-64
2024/02/27 10:49:10;;;;;;;30.63;12.85;;;;;;;;;;5071968;28;20035;-65
2024/02/27 10:51:37;;;;;;;31.00;13.40;;;;;;;;;;5067640;28;20021;-65
2024/02/27 10:54:03;;;;;;;28.77;13.02;;;;;;;;;;5068512;28;20071;-63
2024/02/27 10:56:29;;;;;;;30.73;13.25;;;;;;;;;;5063828;28;20093;-65
2024/02/27 10:58:55;;;;;;;26.02;12.95;;;;;;;;;;5068615;28;20025;-64
2024/02/27 11:01:22;;;;;;;29.92;12.10;;;;;;;;;;5067183;28;20432;-63
2024/02/27 11:03:52;;;;;;;22.58;9.98;;;;;;;;;;5066333;28;20389;-65
2024/02/27 11:06:23;;;;;;;32.13;12.80;;;;;;;;;;5062593;28;20105;-63
2024/02/27 11:08:52;;;;;;;27.52;12.75;;;;;;;;;;5061946;28;20550;-64
2024/02/27 11:11:18;;;;;;;30.73;12.68;;;;;;;;;;5064917;28;20095;-65
2024/02/27 11:13:46;;;;;;;34.35;13.48;;;;;;;;;;5067067;28;20027;-67
2024/02/27 11:16:12;;;;;;;28.63;12.85;;;;;;;;;;5067066;28;20016;-63
2024/02/27 11:18:40;;;;;;;30.30;12.63;;;;;;;;;;5060915;28;20543;-64
2024/02/27 11:21:07;;;;;;;28.35;12.55;;;;;;;;;;5066888;28;20025;-65
2024/02/27 11:23:34;;;;;;;26.92;13.45;;;;;;;;;;5067515;28;20383;-63
2024/02/27 11:26:00;;;;;;;29.88;11.55;;;;;;;;;;5067841;28;20032;-64
2024/02/27 11:28:26;;;;;;;26.40;11.93;;;;;;;;;;5069018;28;20041;-64
2024/02/27 11:30:52;;;;;;;22.95;10.30;;;;;;;;;;5067673;28;20024;-65
2024/02/27 11:33:21;;;;;;;25.23;10.35;;;;;;;;;;5069529;28;20493;-65
2024/02/27 11:35:48;;;;;;;24.27;11.15;;;;;;;;;;5065126;28;20435;-66
2024/02/27 11:38:18;;;;;;;27.35;10.85;;;;;;;;;;5068655;28;20027;-64
2024/02/27 11:40:48;;;;;;;25.52;11.73;;;;;;;;;;5071846;28;20450;-66
2024/02/27 11:43:15;;;;;;;30.08;10.32;;;;;;;;;;5068846;28;20035;-64
2024/02/27 11:45:41;;;;;;;24.88;11.43;;;;;;;;;;5068277;28;20565;-63
2024/02/27 11:48:07;;;;;;;25.92;11.80;;;;;;;;;;5070548;28;20077;-63
2024/02/27 11:50:36;;;;;;;26.75;11.23;;;;;;;;;;5072947;28;20475;-65
2024/02/27 11:53:20;;;;;;;25.08;11.68;;;;;;;;;;5069914;28;20032;-63
2024/02/27 11:55:53;;;;;;;33.17;12.27;;;;;;;;;;5071053;28;20020;-62
2024/02/27 11:58:20;;;;;;;26.52;11.40;;;;;;;;;;5069595;28;20086;-65
2024/02/27 12:00:46;;;;;;;31.05;12.75;;;;;;;;;;5064453;28;20041;-65
2024/02/27 12:03:13;;;;;;;21.88;11.73;;;;;;;;;;5063911;28;20469;-65
2024/02/27 12:05:39;;;;;;;22.55;11.27;;;;;;;;;;5034166;28;20036;-64
2024/02/27 12:08:05;;;;;;;34.83;13.32;;;;;;;;;;5067636;28;20028;-66
2024/02/27 12:10:31;;;;;;;25.05;11.40;;;;;;;;;;5065959;28;20028;-66
2024/02/27 12:12:57;;;;;;;29.48;12.60;;;;;;;;;;5066538;28;20035;-65
2024/02/27 12:15:24;;;;;;;28.92;12.38;;;;;;;;;;5062278;28;20045;-64
2024/02/27 12:17:50;;;;;;;25.63;10.88;;;;;;;;;;5062121;28;20027;-66
2024/02/27 12:20:16;;;;;;;27.55;11.48;;;;;;;;;;5061499;28;20433;-66
2024/02/27 12:22:44;;;;;;;35.97;12.75;;;;;;;;;;5065670;28;20541;-66
2024/02/27 12:25:10;;;;;;;26.90;11.45;;;;;;;;;;5063990;28;20032;-65
2024/02/27 12:27:37;;;;;;;27.60;12.63;;;;;;;;;;5065948;28;20036;-65
2024/02/27 12:30:12;;;;;;;27.50;12.48;;;;;;;;;;5067190;28;20032;-65
2024/02/27 12:32:42;;;;;;;29.67;13.20;;;;;;;;;;5067400;28;20025;-64
2024/02/27 12:35:09;;;;;;;31.80;14.10;;;;;;;;;;5065172;28;20039;-65
2024/02/27 12:37:40;;;;;;;27.17;12.38;;;;;;;;;;5063427;28;20521;-66
2024/02/27 12:40:10;;;;;;;30.77;13.85;;;;;;;;;;5060846;28;20405;-66
2024/02/27 12:42:36;;;;;;;30.42;13.50;;;;;;;;;;5057205;28;20029;-64
2024/02/27 12:45:03;;;;;;;36.05;13.32;;;;;;;;;;5058178;28;20032;-64
2024/02/27 12:47:30;;;;;;;34.05;14.77;;;;;;;;;;5051630;28;20671;-65
2024/02/27 12:49:56;;;;;;;30.48;13.85;;;;;;;;;;5059682;28;20021;-64
2024/02/27 12:52:22;;;;;;;26.52;12.30;;;;;;;;;;5062955;28;20075;-64
2024/02/27 12:54:48;;;;;;;28.23;13.57;;;;;;;;;;5059025;28;20091;-67
2024/02/27 12:57:14;;;;;;;30.60;13.93;;;;;;;;;;5057166;28;20029;-66
2024/02/27 12:59:40;;;;;;;36.05;14.88;;;;;;;;;;5071474;28;20025;-66
2024/02/27 13:02:06;;;;;;;34.60;13.25;;;;;;;;;;5062938;28;20028;-65
2024/02/27 13:04:34;;;;;;;29.42;12.80;;;;;;;;;;5058873;28;20123;-64
2024/02/27 13:06:59;;;;;;;27.98;12.20;;;;;;;;;;5062533;28;20036;-65
2024/02/27 13:09:26;;;;;;;28.48;12.93;;;;;;;;;;5066080;28;20038;-65
2024/02/27 13:11:52;;;;;;;36.72;14.13;;;;;;;;;;5060779;28;20028;-65
2024/02/27 13:14:18;;;;;;;26.55;12.80;;;;;;;;;;5056681;28;20029;-65
2024/02/27 13:16:44;;;;;;;25.30;13.00;;;;;;;;;;5061641;28;20051;-65
2024/02/27 13:19:10;;;;;;;28.80;13.27;;;;;;;;;;5065618;28;20495;-64
2024/02/27 13:21:36;;;;;;;29.63;13.02;;;;;;;;;;5060095;28;20028;-63
2024/02/27 13:24:04;;;;;;;31.20;13.25;;;;;;;;;;5062667;28;20031;-66
2024/02/27 13:26:30;;;;;;;26.90;12.93;;;;;;;;;;5063759;28;20038;-65
2024/02/27 13:28:56;;;;;;;30.23;13.18;;;;;;;;;;5066093;28;20029;-64
2024/02/27 13:31:24;;;;;;;26.50;11.95;;;;;;;;;;5064740;28;20407;-65
2024/02/27 13:33:50;;;;;;;31.40;13.50;;;;;;;;;;5062167;28;20035;-65
2024/02/27 13:36:16;;;;;;;32.65;15.57;;;;;;;;;;5068892;28;20028;-64
2024/02/27 13:38:42;;;;;;;32.05;13.00;;;;;;;;;;5064689;28;20052;-67
2024/02/27 13:41:08;;;;;;;31.20;13.93;;;;;;;;;;5067467;28;20036;-66
2024/02/27 13:43:34;;;;;;;34.85;14.13;;;;;;;;;;5063207;28;20098;-64
2024/02/27 13:46:00;;;;;;;33.30;13.63;;;;;;;;;;5065482;28;20034;-65
2024/02/27 13:48:26;;;;;;;29.05;12.13;;;;;;;;;;5066672;28;20039;-65
2024/02/27 13:50:52;;;;;;;29.70;13.20;;;;;;;;;;5051720;28;20016;-63
2024/02/27 13:53:18;;;;;;;26.83;12.75;;;;;;;;;;5069049;28;20020;-62
2024/02/27 13:55:44;;;;;;;31.25;13.35;;;;;;;;;;5078199;28;20394;-65
2024/02/27 13:58:10;;;;;;;33.30;14.10;;;;;;;;;;5067585;28;20153;-65
2024/02/27 14:00:36;;;;;;;33.17;14.63;;;;;;;;;;5076119;28;20459;-65
2024/02/27 14:03:03;;;;;;;30.92;14.07;;;;;;;;;;5071320;28;20043;-64
2024/02/27 14:05:29;;;;;;;34.42;15.23;;;;;;;;;;5069061;28;20032;-65
2024/02/27 14:07:54;;;;;;;35.25;15.55;;;;;;;;;;5075034;28;20141;-64
2024/02/27 14:10:21;;;;;;;32.47;13.13;;;;;;;;;;5069374;28;20028;-66
2024/02/27 14:12:47;;;;;;;32.85;14.48;;;;;;;;;;5069858;28;20021;-64
2024/02/27 14:15:13;;;;;;;35.08;16.35;;;;;;;;;;5068994;28;20514;-64
2024/02/27 14:17:38;;;;;;;32.15;14.77;;;;;;;;;;5067242;28;20033;-64